Terminal Aerodrome Forecast
Issued by NWS Blacksburg, VA

Home | Current Version | Previous Version | Text Only | Print | Product List | Glossary On
Versions: 1 2 3 4 5 6 7 8 9 10 11 12 13 14 15 16 17 18 19 20 21 22 23 24 25 26 27 28
000
FTUS41 KRNK 020744 AAB
TAFROA
TAF AMD
KROA 020744Z 0208/0306 00000KT 4SM BR OVC008
      TEMPO 0208/0212 1SM BR OVC004
     FM021300 23008KT P6SM SCT040
     FM022000 24010G20KT 5SM SHRA VCTS BKN045CB
     FM030100 22005KT P6SM -SHRA BKN050=

USA.gov is the U.S. government's official web portal to all federal, state and local government web resources and services.